Decoded Metar for UAOO (KZYL-ORDA in KAZAKHSTAN) (IATA:N/A) | Meteo·Mobile Aviation Weather
aviador You're here:

UAOO Decoded Metar

KZYL-ORDA in KAZAKHSTAN
Report Time2019-07-24 04:00:00
UTC Time2019-07-24 04:27:15
Flight Rules vfr VFR
Wind040° at 4 kt
W.Decomp.*RWY 06: 3.6 kt HW 1.8 kt LCW
Visibility9999 m
Phenomena:N/A
Clouds:N/A
Expected CloudBase > 7,600 ft AGL from Temp-Dew spread
CeilingNone
Temp30°C (ISA +16)
Dew Point11°C (31% RH)
Heat Index28.8°C
AAT28.9°C
QNH1009 hPa
Density Alt2,549 ft
Elevation423 ft
Report Wrong Elevation
Raw Report
UAOO 240400Z 04002MPS 020V080 CAVOK 30/11 Q1009 R05/CLRD70 NOSIG
RMK QFE745/0994=

Extra information for UAOO:More info

Metar Taf Metar & Taf Last 4 Metars F.Rules Stats Wind Profile Meteogram Temp Stats Airport Information Weather charts Add Link Nearby VenuesMetar ALERT Operation Metar Decoded Social comments